Spirit Of Philadelphia — WDD4763 — position and weather

sailwx.info

Track history (hours):
 
Tides and Currents Weather Stations Pressure Air Temp Water Temp Dewpoint Dewpoint Depression Visibility Wind Speed Wind Dir Waves Ship Positions

Spirit Of Philadelphia

Owner: Spirit Cruises, LLC, Chicago, IL. More information available from US FCC via Universal Licensing System and Coast Guard Vessel Documentation Center.

Last reported at 2017-Nov-19 23:04 UTC. Time now 2017-Nov-22 07:35 UTC.
Position N 39°56' W 075°08'.

Length 48 m; draft 2.1 m.

Type: Passenger vessel. MMSI: 367148710.

Date/timePositionNaut miles runAvg speedWind from/ knotsBaromVisibWave heightAir tempDewpointWater temp
2017-Nov-19 23:04N 39°56' W 075°08'0 0.1
2017-Nov-19 23:00N 39°56' W 075°08'0 0.0
2017-Nov-19 22:30N 39°56' W 075°08'0 0.0
2017-Nov-19 22:00N 39°56' W 075°08'0 0.0
2017-Nov-19 21:30N 39°56' W 075°08'0 0.0
2017-Nov-19 21:01N 39°56' W 075°08'0 0.0
2017-Nov-19 20:30N 39°56' W 075°08'0 0.0
2017-Nov-19 20:00N 39°56' W 075°08'0 0.0
2017-Nov-19 19:30N 39°56' W 075°08'0 0.0
2017-Nov-19 19:00N 39°56' W 075°08'0 1.0
2017-Nov-19 18:30N 39°57' W 075°08'3 6.0
2017-Nov-19 18:01N 39°54' W 075°08'2 4.2
2017-Nov-19 17:30N 39°56' W 075°08'0 0.9
2017-Nov-19 17:01N 39°56' W 075°08'0 0.0
2017-Nov-19 03:42N 39°56' W 075°08'0 0.0
2017-Nov-19 03:30N 39°56' W 075°08'0 0.4
2017-Nov-19 03:00N 39°56' W 075°08'1 1.9
2017-Nov-19 02:30N 39°55' W 075°08'0 0.1
2017-Nov-19 02:00N 39°55' W 075°08'2 4.3
2017-Nov-19 01:30N 39°58' W 075°08'0 0.2
2017-Nov-19 01:00N 39°58' W 075°08'1 2.4
2017-Nov-19 00:30N 39°56' W 075°08'0 0.0
2017-Nov-19 00:00N 39°56' W 075°08'0 0.0
2017-Nov-18 23:30N 39°56' W 075°08'0 0.0
2017-Nov-18 23:00N 39°56' W 075°08'0 0.0
2017-Nov-18 22:30N 39°56' W 075°08'0 0.0
2017-Nov-18 22:00N 39°56' W 075°08'0 0.0
2017-Nov-18 21:30N 39°56' W 075°08'0 0.0
2017-Nov-18 21:00N 39°56' W 075°08'0 0.0
2017-Nov-18 20:30N 39°56' W 075°08'0 0.0
2017-Nov-18 20:00N 39°56' W 075°08'0 0.0
2017-Nov-18 19:30N 39°56' W 075°08'0 0.0
2017-Nov-18 19:00N 39°56' W 075°08'0 0.0
2017-Nov-18 18:30N 39°56' W 075°08'2 3.2
2017-Nov-18 18:00N 39°55' W 075°08'2 4.3
2017-Nov-18 17:30N 39°53' W 075°09'3 5.6
2017-Nov-18 17:00N 39°56' W 075°08'1 1.6
2017-Nov-18 16:30N 39°56' W 075°08'0 0.0
2017-Nov-18 16:00N 39°56' W 075°08'0 0.0
2017-Nov-18 15:31N 39°56' W 075°08'0 0.0
2017-Nov-18 15:00N 39°56' W 075°08'0 0.0
2017-Nov-18 14:31N 39°56' W 075°08'0 0.0
2017-Nov-18 14:00N 39°56' W 075°08'0 0.0
2017-Nov-18 13:30N 39°56' W 075°08'0 0.0
2017-Nov-18 13:00N 39°56' W 075°08'0 0.0
2017-Nov-18 12:30N 39°56' W 075°08'0 0.0
2017-Nov-18 04:01N 39°56' W 075°08'0 0.6
2017-Nov-18 04:00N 39°56' W 075°08'0 0.0
2017-Nov-18 03:30N 39°56' W 075°08'2 3.9
2017-Nov-18 03:00N 39°58' W 075°07'1 1.8
2017-Nov-18 02:31N 39°58' W 075°06'3 6.4
2017-Nov-18 02:00N 39°56' W 075°08'3 6.4
2017-Nov-18 01:30N 39°53' W 075°10'2 4.3
2017-Nov-18 01:00N 39°54' W 075°08'2 4.6
2017-Nov-18 00:30N 39°56' W 075°08'0 0.0
2017-Nov-18 00:00N 39°56' W 075°08'0 0.0
2017-Nov-17 23:30N 39°56' W 075°08'0 0.0
2017-Nov-16 18:54N 39°56' W 075°08'1 3.3
2017-Nov-16 18:30N 39°55' W 075°08'2 4.8
2017-Nov-16 18:00N 39°53' W 075°09'3 5.1
2017-Nov-16 17:30N 39°55' W 075°08'  
2017-Nov-13 02:00N 39°56' W 075°08'0 0.0
2017-Nov-13 01:30N 39°56' W 075°08'0 0.5
2017-Nov-13 01:00N 39°56' W 075°08'1 2.3
2017-Nov-13 00:30N 39°55' W 075°08'2 3.7
2017-Nov-13 00:00N 39°57' W 075°08'1 2.5
2017-Nov-12 23:30N 39°58' W 075°07'2 3.8
2017-Nov-12 23:01N 39°56' W 075°08'0 0.0
2017-Nov-12 22:31N 39°56' W 075°08'0 0.0
2017-Nov-12 22:00N 39°56' W 075°08'0 0.0
2017-Nov-12 21:30N 39°56' W 075°08'0 0.0
2017-Nov-12 21:01N 39°56' W 075°08'0 0.0
2017-Nov-12 20:30N 39°56' W 075°08'0 0.0
2017-Nov-12 20:00N 39°56' W 075°08'0 0.0
2017-Nov-12 19:30N 39°56' W 075°08'0 0.0
2017-Nov-12 19:00N 39°56' W 075°08'2 3.2
2017-Nov-12 18:31N 39°55' W 075°08'2 4.8
2017-Nov-12 18:01N 39°53' W 075°09'3 5.2
2017-Nov-12 17:31N 39°55' W 075°08'1 2.6
2017-Nov-12 17:00N 39°56' W 075°08'0 0.0
2017-Nov-12 03:30N 39°56' W 075°08'2 3.1
2017-Nov-12 03:00N 39°55' W 075°08'2 4.9
2017-Nov-12 02:30N 39°53' W 075°09'0 0.7
2017-Nov-12 02:01N 39°53' W 075°09'3 6.6
2017-Nov-12 01:30N 39°56' W 075°08'2 4.3
2017-Nov-12 01:01N 39°58' W 075°07'2 4.3
2017-Nov-12 00:30N 39°56' W 075°08'0 0.0
2017-Nov-12 00:00N 39°56' W 075°08'0 0.0
2017-Nov-11 23:30N 39°56' W 075°08'0 0.0
2017-Nov-11 23:00N 39°56' W 075°08'0 0.0
2017-Nov-11 22:30N 39°56' W 075°08'0 0.0
2017-Nov-11 22:00N 39°56' W 075°08'0 0.0
2017-Nov-11 21:30N 39°56' W 075°08'0 0.0
2017-Nov-11 21:00N 39°56' W 075°08'0 0.0
2017-Nov-11 20:30N 39°56' W 075°08'0 0.0
2017-Nov-11 20:00N 39°56' W 075°08'0 0.0
2017-Nov-11 19:30N 39°56' W 075°08'0 0.0
2017-Nov-11 19:00N 39°56' W 075°08'0 0.0
2017-Nov-11 18:30N 39°56' W 075°08'2 4.2
2017-Nov-11 18:00N 39°54' W 075°08'3 5.6
2017-Nov-11 17:31N 39°53' W 075°11'3 6.2
2017-Nov-11 17:00N 39°55' W 075°08'1 2.6
2017-Nov-11 16:30N 39°56' W 075°08'0 0.0
2017-Nov-11 16:00N 39°56' W 075°08'0 0.0
2017-Nov-11 15:30N 39°56' W 075°08'0 0.0
2017-Nov-11 04:29N 39°56' W 075°08'0 0.0
2017-Nov-11 04:00N 39°56' W 075°08'1 1.1
2017-Nov-11 03:31N 39°56' W 075°08'1 2.2
2017-Nov-11 03:00N 39°55' W 075°08'2 3.4
2017-Nov-11 02:30N 39°57' W 075°08'1 2.7
2017-Nov-11 02:00N 39°58' W 075°08'1 2.8
2017-Nov-11 01:30N 39°56' W 075°08'0 0.0
2017-Nov-10 02:57N 39°56' W 075°08'0 0.0
2017-Nov-10 02:31N 39°56' W 075°08'0 0.4
2017-Nov-10 02:01N 39°57' W 075°08'2 3.7
2017-Nov-10 01:30N 39°55' W 075°08'2 3.5
2017-Nov-10 01:01N 39°57' W 075°08'2 3.3
2017-Nov-10 00:31N 39°58' W 075°07'2 3.7
2017-Nov-10 00:00N 39°56' W 075°08'  
Track history (hours):
 
Tides and Currents Weather Stations Pressure Air Temp Water Temp Dewpoint Dewpoint Depression Visibility Wind Speed Wind Dir Waves Ship Positions

Spirit Of Philadelphia

Owner: Spirit Cruises, LLC, Chicago, IL. More information available from US FCC via Universal Licensing System and Coast Guard Vessel Documentation Center.

Last reported at 2017-Nov-19 23:04 UTC. Time now 2017-Nov-22 07:35 UTC.
Position N 39°56' W 075°08'.

Length 48 m; draft 2.1 m.

Type: Passenger vessel. MMSI: 367148710.

Date/timePositionNaut miles runAvg speedWind from/ knotsBaromVisibWave heightAir tempDewpointWater temp
2017-Nov-19 23:04N 39°56' W 075°08'0 0.1
2017-Nov-19 23:00N 39°56' W 075°08'0 0.0
2017-Nov-19 22:30N 39°56' W 075°08'0 0.0
2017-Nov-19 22:00N 39°56' W 075°08'0 0.0
2017-Nov-19 21:30N 39°56' W 075°08'0 0.0
2017-Nov-19 21:01N 39°56' W 075°08'0 0.0
2017-Nov-19 20:30N 39°56' W 075°08'0 0.0
2017-Nov-19 20:00N 39°56' W 075°08'0 0.0
2017-Nov-19 19:30N 39°56' W 075°08'0 0.0
2017-Nov-19 19:00N 39°56' W 075°08'0 1.0
2017-Nov-19 18:30N 39°57' W 075°08'3 6.0
2017-Nov-19 18:01N 39°54' W 075°08'2 4.2
2017-Nov-19 17:30N 39°56' W 075°08'0 0.9
2017-Nov-19 17:01N 39°56' W 075°08'0 0.0
2017-Nov-19 03:42N 39°56' W 075°08'0 0.0
2017-Nov-19 03:30N 39°56' W 075°08'0 0.4
2017-Nov-19 03:00N 39°56' W 075°08'1 1.9
2017-Nov-19 02:30N 39°55' W 075°08'0 0.1
2017-Nov-19 02:00N 39°55' W 075°08'2 4.3
2017-Nov-19 01:30N 39°58' W 075°08'0 0.2
2017-Nov-19 01:00N 39°58' W 075°08'1 2.4
2017-Nov-19 00:30N 39°56' W 075°08'0 0.0
2017-Nov-19 00:00N 39°56' W 075°08'0 0.0
2017-Nov-18 23:30N 39°56' W 075°08'0 0.0
2017-Nov-18 23:00N 39°56' W 075°08'0 0.0
2017-Nov-18 22:30N 39°56' W 075°08'0 0.0
2017-Nov-18 22:00N 39°56' W 075°08'0 0.0
2017-Nov-18 21:30N 39°56' W 075°08'0 0.0
2017-Nov-18 21:00N 39°56' W 075°08'0 0.0
2017-Nov-18 20:30N 39°56' W 075°08'0 0.0
2017-Nov-18 20:00N 39°56' W 075°08'0 0.0
2017-Nov-18 19:30N 39°56' W 075°08'0 0.0
2017-Nov-18 19:00N 39°56' W 075°08'0 0.0
2017-Nov-18 18:30N 39°56' W 075°08'2 3.2
2017-Nov-18 18:00N 39°55' W 075°08'2 4.3
2017-Nov-18 17:30N 39°53' W 075°09'3 5.6
2017-Nov-18 17:00N 39°56' W 075°08'1 1.6
2017-Nov-18 16:30N 39°56' W 075°08'0 0.0
2017-Nov-18 16:00N 39°56' W 075°08'0 0.0
2017-Nov-18 15:31N 39°56' W 075°08'0 0.0
2017-Nov-18 15:00N 39°56' W 075°08'0 0.0
2017-Nov-18 14:31N 39°56' W 075°08'0 0.0
2017-Nov-18 14:00N 39°56' W 075°08'0 0.0
2017-Nov-18 13:30N 39°56' W 075°08'0 0.0
2017-Nov-18 13:00N 39°56' W 075°08'0 0.0
2017-Nov-18 12:30N 39°56' W 075°08'0 0.0
2017-Nov-18 04:01N 39°56' W 075°08'0 0.6
2017-Nov-18 04:00N 39°56' W 075°08'0 0.0
2017-Nov-18 03:30N 39°56' W 075°08'2 3.9
2017-Nov-18 03:00N 39°58' W 075°07'1 1.8
2017-Nov-18 02:31N 39°58' W 075°06'3 6.4
2017-Nov-18 02:00N 39°56' W 075°08'3 6.4
2017-Nov-18 01:30N 39°53' W 075°10'2 4.3
2017-Nov-18 01:00N 39°54' W 075°08'2 4.6
2017-Nov-18 00:30N 39°56' W 075°08'0 0.0
2017-Nov-18 00:00N 39°56' W 075°08'0 0.0
2017-Nov-17 23:30N 39°56' W 075°08'0 0.0
2017-Nov-16 18:54N 39°56' W 075°08'1 3.3
2017-Nov-16 18:30N 39°55' W 075°08'2 4.8
2017-Nov-16 18:00N 39°53' W 075°09'3 5.1
2017-Nov-16 17:30N 39°55' W 075°08'  
2017-Nov-13 02:00N 39°56' W 075°08'0 0.0
2017-Nov-13 01:30N 39°56' W 075°08'0 0.5
2017-Nov-13 01:00N 39°56' W 075°08'1 2.3
2017-Nov-13 00:30N 39°55' W 075°08'2 3.7
2017-Nov-13 00:00N 39°57' W 075°08'1 2.5
2017-Nov-12 23:30N 39°58' W 075°07'2 3.8
2017-Nov-12 23:01N 39°56' W 075°08'0 0.0
2017-Nov-12 22:31N 39°56' W 075°08'0 0.0
2017-Nov-12 22:00N 39°56' W 075°08'0 0.0
2017-Nov-12 21:30N 39°56' W 075°08'0 0.0
2017-Nov-12 21:01N 39°56' W 075°08'0 0.0
2017-Nov-12 20:30N 39°56' W 075°08'0 0.0
2017-Nov-12 20:00N 39°56' W 075°08'0 0.0
2017-Nov-12 19:30N 39°56' W 075°08'0 0.0
2017-Nov-12 19:00N 39°56' W 075°08'2 3.2
2017-Nov-12 18:31N 39°55' W 075°08'2 4.8
2017-Nov-12 18:01N 39°53' W 075°09'3 5.2
2017-Nov-12 17:31N 39°55' W 075°08'1 2.6
2017-Nov-12 17:00N 39°56' W 075°08'0 0.0
2017-Nov-12 03:30N 39°56' W 075°08'2 3.1
2017-Nov-12 03:00N 39°55' W 075°08'2 4.9
2017-Nov-12 02:30N 39°53' W 075°09'0 0.7
2017-Nov-12 02:01N 39°53' W 075°09'3 6.6
2017-Nov-12 01:30N 39°56' W 075°08'2 4.3
2017-Nov-12 01:01N 39°58' W 075°07'2 4.3
2017-Nov-12 00:30N 39°56' W 075°08'0 0.0
2017-Nov-12 00:00N 39°56' W 075°08'0 0.0
2017-Nov-11 23:30N 39°56' W 075°08'0 0.0
2017-Nov-11 23:00N 39°56' W 075°08'0 0.0
2017-Nov-11 22:30N 39°56' W 075°08'0 0.0
2017-Nov-11 22:00N 39°56' W 075°08'0 0.0
2017-Nov-11 21:30N 39°56' W 075°08'0 0.0
2017-Nov-11 21:00N 39°56' W 075°08'0 0.0
2017-Nov-11 20:30N 39°56' W 075°08'0 0.0
2017-Nov-11 20:00N 39°56' W 075°08'0 0.0
2017-Nov-11 19:30N 39°56' W 075°08'0 0.0
2017-Nov-11 19:00N 39°56' W 075°08'0 0.0
2017-Nov-11 18:30N 39°56' W 075°08'2 4.2
2017-Nov-11 18:00N 39°54' W 075°08'3 5.6
2017-Nov-11 17:31N 39°53' W 075°11'3 6.2
2017-Nov-11 17:00N 39°55' W 075°08'1 2.6
2017-Nov-11 16:30N 39°56' W 075°08'0 0.0
2017-Nov-11 16:00N 39°56' W 075°08'0 0.0
2017-Nov-11 15:30N 39°56' W 075°08'0 0.0
2017-Nov-11 04:29N 39°56' W 075°08'0 0.0
2017-Nov-11 04:00N 39°56' W 075°08'1 1.1
2017-Nov-11 03:31N 39°56' W 075°08'1 2.2
2017-Nov-11 03:00N 39°55' W 075°08'2 3.4
2017-Nov-11 02:30N 39°57' W 075°08'1 2.7
2017-Nov-11 02:00N 39°58' W 075°08'1 2.8
2017-Nov-11 01:30N 39°56' W 075°08'0 0.0
2017-Nov-10 02:57N 39°56' W 075°08'0 0.0
2017-Nov-10 02:31N 39°56' W 075°08'0 0.4
2017-Nov-10 02:01N 39°57' W 075°08'2 3.7
2017-Nov-10 01:30N 39°55' W 075°08'2 3.5
2017-Nov-10 01:01N 39°57' W 075°08'2 3.3
2017-Nov-10 00:31N 39°58' W 075°07'2 3.7
2017-Nov-10 00:00N 39°56' W 075°08'  

Dump ship's entire track history